createdAt,value
2018-05-10T00:00:44.024Z,16.20
2018-05-10T00:03:11.890Z,16.20
2018-05-10T00:05:39.756Z,16.20
2018-05-10T00:08:07.623Z,16.20
2018-05-10T00:10:35.491Z,16.20
2018-05-10T00:13:03.356Z,16.20
2018-05-10T00:15:31.224Z,16.10
2018-05-10T00:17:59.090Z,16.10
2018-05-10T00:20:26.956Z,16.00
2018-05-10T00:22:54.824Z,16.00
2018-05-10T00:25:22.693Z,15.90
2018-05-10T00:27:51.479Z,15.90
2018-05-10T00:30:19.371Z,15.80
2018-05-10T00:32:47.210Z,15.90
2018-05-10T00:35:15.077Z,15.90
2018-05-10T00:37:42.943Z,15.90
2018-05-10T00:40:10.810Z,15.90
2018-05-10T00:42:38.779Z,15.80
2018-05-10T00:45:07.467Z,15.60
2018-05-10T00:47:35.332Z,15.70
2018-05-10T00:50:03.198Z,15.60
2018-05-10T00:52:31.169Z,15.60
2018-05-10T00:54:59.135Z,15.70
2018-05-10T00:57:27.009Z,15.70
2018-05-10T00:59:54.974Z,15.70
2018-05-10T01:02:22.838Z,15.70
2018-05-10T01:04:50.801Z,15.60
2018-05-10T01:07:19.391Z,15.50
2018-05-10T01:09:47.361Z,15.50
2018-05-10T01:12:15.227Z,15.50
2018-05-10T01:14:43.093Z,15.50
2018-05-10T01:17:11.063Z,15.50
2018-05-10T01:19:38.928Z,15.50
2018-05-10T01:22:06.898Z,15.40
2018-05-10T01:24:34.868Z,15.50
2018-05-10T01:27:02.735Z,15.40
2018-05-10T01:29:30.600Z,15.50
2018-05-10T01:31:58.466Z,15.50
2018-05-10T01:34:26.333Z,15.50
2018-05-10T01:36:54.199Z,15.40
2018-05-10T01:39:22.066Z,15.40
2018-05-10T01:41:49.932Z,15.40
2018-05-10T01:44:17.798Z,15.40
2018-05-10T01:46:45.668Z,15.40
2018-05-10T01:49:13.532Z,15.40
2018-05-10T01:51:41.404Z,15.40
2018-05-10T01:54:09.367Z,15.40
2018-05-10T01:56:37.338Z,15.30
2018-05-10T01:59:05.205Z,15.30
2018-05-10T02:01:33.175Z,15.30
2018-05-10T02:04:01.039Z,15.40
2018-05-10T02:06:28.863Z,15.40
2018-05-10T02:08:57.591Z,15.40
2018-05-10T02:11:25.459Z,15.30
2018-05-10T02:13:53.430Z,15.40
2018-05-10T02:16:21.293Z,15.40
2018-05-10T02:18:49.159Z,15.40
2018-05-10T02:21:17.026Z,15.30
2018-05-10T02:23:44.892Z,15.30
2018-05-10T02:26:12.759Z,15.40
2018-05-10T02:28:40.628Z,15.30
2018-05-10T02:31:08.493Z,15.30
2018-05-10T02:33:36.358Z,15.20
2018-05-10T02:36:04.225Z,15.20
2018-05-10T02:38:32.092Z,15.20
2018-05-10T02:40:59.958Z,15.20
2018-05-10T02:43:27.825Z,15.20
2018-05-10T02:45:55.692Z,15.20
2018-05-10T02:48:23.559Z,15.20
2018-05-10T02:50:51.353Z,15.10
2018-05-10T02:53:20.011Z,15.10
2018-05-10T02:55:47.876Z,15.10
2018-05-10T02:58:15.742Z,15.10
2018-05-10T03:00:43.710Z,15.10
2018-05-10T03:03:12.396Z,15.10
2018-05-10T03:05:40.367Z,15.00
2018-05-10T03:08:08.231Z,15.00
2018-05-10T03:10:36.098Z,15.00
2018-05-10T03:13:04.069Z,15.00
2018-05-10T03:15:31.969Z,15.00
2018-05-10T03:18:02.891Z,15.00
2018-05-10T03:20:34.494Z,15.00
2018-05-10T03:23:03.870Z,15.00
2018-05-10T03:25:32.616Z,15.10
2018-05-10T03:28:00.483Z,15.10
2018-05-10T03:30:28.349Z,15.10
2018-05-10T03:32:56.216Z,15.10
2018-05-10T03:35:24.082Z,15.10
2018-05-10T03:37:51.949Z,15.10
2018-05-10T03:40:19.815Z,15.00
2018-05-10T03:42:47.682Z,15.00
2018-05-10T03:45:15.552Z,15.00
2018-05-10T03:47:43.415Z,15.00
2018-05-10T03:50:11.277Z,15.00
2018-05-10T03:52:39.148Z,14.90
2018-05-10T03:55:07.021Z,14.90
2018-05-10T03:57:34.882Z,14.90
2018-05-10T04:00:02.772Z,15.00
2018-05-10T04:05:46.304Z,15.00
2018-05-10T04:08:26.047Z,14.90
2018-05-10T04:11:05.792Z,15.00
2018-05-10T04:13:33.659Z,15.00
2018-05-10T04:16:01.528Z,15.10
2018-05-10T04:18:29.392Z,15.10
2018-05-10T04:20:57.233Z,15.10
2018-05-10T04:23:25.125Z,15.20
2018-05-10T04:25:52.943Z,15.20
2018-05-10T04:28:20.859Z,15.20
2018-05-10T04:30:48.725Z,15.30
2018-05-10T04:33:16.592Z,15.30
2018-05-10T04:35:44.491Z,15.30
2018-05-10T04:38:13.103Z,15.40
2018-05-10T04:40:41.016Z,15.30
2018-05-10T04:43:08.877Z,15.40
2018-05-10T04:45:37.051Z,15.40
2018-05-10T04:48:04.918Z,15.40
2018-05-10T04:50:32.783Z,15.50
2018-05-10T04:53:00.651Z,15.50
2018-05-10T04:55:28.516Z,15.60
2018-05-10T04:57:56.589Z,15.70
2018-05-10T05:00:24.384Z,15.70
2018-05-10T05:02:52.324Z,15.80
2018-05-10T05:05:20.190Z,15.80
2018-05-10T05:07:48.158Z,15.80
2018-05-10T05:10:16.024Z,15.90
2018-05-10T05:12:43.992Z,15.90
2018-05-10T05:15:11.858Z,16.00
2018-05-10T05:17:39.725Z,16.10
2018-05-10T05:20:07.592Z,16.10
2018-05-10T05:22:35.459Z,16.20
2018-05-10T05:25:03.325Z,16.20
2018-05-10T05:27:31.191Z,16.20
2018-05-10T05:29:59.060Z,16.30
2018-05-10T05:32:26.927Z,16.40
2018-05-10T05:34:54.791Z,16.50
2018-05-10T05:37:22.658Z,16.60
2018-05-10T05:39:50.525Z,16.60
2018-05-10T05:42:18.496Z,16.70
2018-05-10T05:44:46.360Z,16.80
2018-05-10T05:47:14.226Z,16.80
2018-05-10T05:49:42.912Z,16.90
2018-05-10T05:52:10.779Z,16.90
2018-05-10T05:54:38.647Z,17.00
2018-05-10T05:57:06.512Z,17.10
2018-05-10T05:59:34.378Z,17.20
2018-05-10T06:02:02.347Z,17.30
2018-05-10T06:04:30.316Z,17.40
2018-05-10T06:06:58.184Z,17.50
2018-05-10T06:09:26.053Z,17.50
2018-05-10T06:11:53.845Z,17.60
2018-05-10T06:14:21.783Z,17.60
2018-05-10T06:16:49.649Z,17.70
2018-05-10T06:19:17.517Z,17.80
2018-05-10T06:21:45.383Z,18.00
2018-05-10T06:24:13.248Z,18.00
2018-05-10T06:26:41.115Z,18.20
2018-05-10T06:29:08.984Z,18.20
2018-05-10T06:31:36.849Z,18.30
2018-05-10T06:34:04.755Z,18.40
2018-05-10T06:36:33.401Z,18.50
2018-05-10T06:39:01.166Z,18.50
2018-05-10T06:41:29.155Z,18.70
2018-05-10T06:43:57.820Z,18.90
2018-05-10T06:46:25.687Z,18.90
2018-05-10T06:48:53.555Z,19.00
2018-05-10T06:51:21.419Z,19.10
2018-05-10T06:53:49.286Z,19.40
2018-05-10T06:56:17.152Z,19.60
2018-05-10T06:58:45.019Z,20.10
2018-05-10T07:01:12.887Z,21.40
2018-05-10T07:03:40.753Z,22.90
2018-05-10T07:06:08.619Z,24.40
2018-05-10T07:08:36.486Z,25.70
2018-05-10T07:11:04.354Z,26.70
2018-05-10T07:13:32.219Z,27.30
2018-05-10T07:16:00.086Z,28.30
2018-05-10T07:18:27.959Z,28.40
2018-05-10T07:20:55.819Z,29.20
2018-05-10T07:23:23.685Z,29.80
2018-05-10T07:25:51.552Z,30.80
2018-05-10T07:28:19.420Z,31.40
2018-05-10T07:30:47.285Z,31.50
2018-05-10T07:33:15.152Z,31.90
2018-05-10T07:35:43.019Z,32.40
2018-05-10T07:38:10.885Z,32.40
2018-05-10T07:40:38.751Z,32.70
2018-05-10T07:43:06.621Z,32.80
2018-05-10T07:45:34.485Z,32.30
2018-05-10T07:48:02.351Z,32.90
2018-05-10T07:50:30.218Z,32.80
2018-05-10T07:52:58.084Z,32.30
2018-05-10T07:55:25.955Z,32.50
2018-05-10T07:57:53.921Z,32.50
2018-05-10T08:00:21.889Z,31.40
2018-05-10T08:02:49.761Z,30.70
2018-05-10T08:05:17.622Z,30.00
2018-05-10T08:07:45.489Z,29.60
2018-05-10T08:10:13.379Z,29.30
2018-05-10T08:12:41.938Z,28.60
2018-05-10T08:15:09.805Z,28.60
2018-05-10T08:17:37.675Z,28.40
2018-05-10T08:20:05.642Z,28.00
2018-05-10T08:22:33.507Z,27.80
2018-05-10T08:25:01.374Z,28.20
2018-05-10T08:27:50.131Z,28.20
2018-05-10T08:30:18.023Z,28.70
2018-05-10T08:32:46.682Z,29.70
2018-05-10T08:35:14.549Z,29.70
2018-05-10T08:37:42.344Z,30.40
2018-05-10T08:40:10.281Z,31.30
2018-05-10T08:42:38.459Z,31.40
2018-05-10T08:45:06.378Z,31.10
2018-05-10T08:47:35.008Z,32.00
2018-05-10T08:50:02.875Z,32.00
2018-05-10T08:52:30.740Z,32.90
2018-05-10T08:54:58.537Z,32.60
2018-05-10T08:57:26.475Z,32.80
2018-05-10T08:59:54.451Z,33.00
2018-05-10T09:02:22.311Z,33.10
2018-05-10T09:04:50.176Z,33.00
2018-05-10T09:07:18.052Z,33.10
2018-05-10T09:09:45.910Z,33.30
2018-05-10T09:12:13.880Z,33.90
2018-05-10T09:14:41.744Z,33.50
2018-05-10T09:17:09.611Z,33.10
2018-05-10T09:19:37.478Z,32.60
2018-05-10T09:22:05.344Z,32.40
2018-05-10T09:24:33.210Z,32.20
2018-05-10T09:27:01.110Z,32.30
2018-05-10T09:29:29.764Z,33.00
2018-05-10T09:31:57.631Z,33.00
2018-05-10T09:34:25.530Z,33.40
2018-05-10T09:36:53.567Z,33.90
2018-05-10T09:39:21.502Z,33.90
2018-05-10T09:41:50.120Z,34.50
2018-05-10T09:44:18.043Z,34.50
2018-05-10T09:46:46.673Z,35.60
2018-05-10T09:49:14.539Z,35.60
2018-05-10T09:51:42.316Z,36.00
2018-05-10T09:54:10.858Z,36.20
2018-05-10T09:56:39.646Z,36.00
2018-05-10T09:59:07.649Z,36.40
2018-05-10T10:01:35.875Z,36.40
2018-05-10T10:04:03.825Z,35.90
2018-05-10T10:06:32.622Z,34.80
2018-05-10T10:09:00.610Z,34.70
2018-05-10T10:11:29.028Z,34.40
2018-05-10T10:13:57.013Z,33.80
2018-05-10T10:16:24.978Z,33.20
2018-05-10T10:18:52.944Z,33.00
2018-05-10T10:21:20.836Z,32.40
2018-05-10T10:23:49.506Z,31.50
2018-05-10T10:26:18.386Z,31.40
2018-05-10T10:28:47.513Z,30.70
2018-05-10T10:31:16.325Z,30.00
2018-05-10T10:33:44.192Z,29.90
2018-05-10T10:36:12.077Z,29.90
2018-05-10T10:38:40.112Z,29.70
2018-05-10T10:41:08.137Z,29.30
2018-05-10T10:43:36.889Z,29.00
2018-05-10T10:46:04.901Z,28.70
2018-05-10T10:48:32.964Z,28.60
2018-05-10T10:51:00.859Z,28.70
2018-05-10T10:53:29.504Z,28.50
2018-05-10T10:55:57.269Z,28.50
2018-05-10T10:58:25.074Z,28.60
2018-05-10T11:00:52.866Z,28.50
2018-05-10T11:03:20.705Z,28.30
2018-05-10T11:05:49.257Z,27.50
2018-05-10T11:08:17.124Z,27.40
2018-05-10T11:10:45.043Z,27.20
2018-05-10T11:13:13.676Z,26.70
2018-05-10T11:15:41.646Z,26.70
2018-05-10T11:18:09.431Z,26.60
2018-05-10T11:20:37.193Z,26.40
2018-05-10T11:23:05.028Z,26.20
2018-05-10T11:25:32.785Z,26.10
2018-05-10T11:28:00.570Z,26.10
2018-05-10T11:30:28.352Z,26.10
2018-05-10T11:32:56.888Z,26.30
2018-05-10T11:35:24.697Z,26.30
2018-05-10T11:37:52.472Z,26.60
2018-05-10T11:40:21.027Z,26.70
2018-05-10T11:42:48.815Z,26.60
2018-05-10T11:45:16.581Z,26.70
2018-05-10T11:47:44.342Z,26.70
2018-05-10T11:50:12.100Z,26.70
2018-05-10T11:52:39.861Z,26.80
2018-05-10T11:55:07.623Z,26.80
2018-05-10T11:57:35.386Z,26.90
2018-05-10T12:00:03.229Z,26.90
2018-05-10T12:02:31.095Z,26.80
2018-05-10T12:04:58.824Z,27.00
2018-05-10T12:07:27.357Z,27.40
2018-05-10T12:09:55.132Z,27.40
2018-05-10T12:12:22.917Z,27.40
2018-05-10T12:14:50.692Z,27.30
2018-05-10T12:17:19.310Z,27.00
2018-05-10T12:19:47.078Z,27.00
2018-05-10T12:22:14.961Z,27.00
2018-05-10T12:24:42.824Z,27.00
2018-05-10T12:27:11.005Z,26.80
2018-05-10T12:29:38.872Z,26.80
2018-05-10T12:32:06.738Z,26.70
2018-05-10T12:34:35.044Z,26.60
2018-05-10T12:37:03.802Z,26.40
2018-05-10T12:39:31.668Z,26.40
2018-05-10T12:41:59.466Z,26.40
2018-05-10T12:44:28.120Z,26.10
2018-05-10T12:46:55.926Z,26.10
2018-05-10T12:49:24.498Z,25.80
2018-05-10T12:51:52.299Z,25.80
2018-05-10T12:54:20.082Z,25.70
2018-05-10T12:56:47.889Z,25.60
2018-05-10T12:59:15.699Z,25.60
2018-05-10T13:01:43.801Z,25.70
2018-05-10T13:04:11.936Z,25.70
2018-05-10T13:06:39.710Z,25.50
2018-05-10T13:09:07.618Z,25.40
2018-05-10T13:11:35.469Z,25.40
2018-05-10T13:14:03.439Z,25.40
2018-05-10T13:16:31.305Z,25.40
2018-05-10T13:18:59.171Z,25.50
2018-05-10T13:21:27.038Z,25.40
2018-05-10T13:23:55.449Z,25.50
2018-05-10T13:26:23.213Z,25.40
2018-05-10T13:28:51.115Z,25.50
2018-05-10T13:31:20.348Z,25.40
2018-05-10T13:33:48.208Z,25.50
2018-05-10T13:36:16.286Z,25.40
2018-05-10T13:38:46.507Z,25.20
2018-05-10T13:41:14.258Z,25.10
2018-05-10T13:43:42.139Z,25.10
2018-05-10T13:46:09.932Z,25.00
2018-05-10T13:48:38.390Z,24.90
2018-05-10T13:51:06.686Z,24.90
2018-05-10T13:53:34.436Z,24.80
2018-05-10T13:56:02.791Z,24.80
2018-05-10T13:58:30.549Z,24.70
2018-05-10T14:00:58.759Z,24.70
2018-05-10T14:03:26.961Z,24.70
2018-05-10T14:05:55.477Z,24.70
2018-05-10T14:08:23.364Z,24.70
2018-05-10T14:10:51.211Z,24.80
2018-05-10T14:13:19.818Z,24.50
2018-05-10T14:15:47.682Z,24.50
2018-05-10T14:18:15.547Z,24.40
2018-05-10T14:20:43.413Z,24.40
2018-05-10T14:23:11.281Z,24.30
2018-05-10T14:25:39.147Z,24.20
2018-05-10T14:28:06.945Z,24.10
2018-05-10T14:30:35.495Z,24.20
2018-05-10T14:33:03.571Z,24.20
2018-05-10T14:35:32.152Z,24.10
2018-05-10T14:37:59.916Z,24.10
2018-05-10T14:40:27.712Z,24.20
2018-05-10T14:42:56.255Z,24.10
2018-05-10T14:45:24.034Z,24.10
2018-05-10T14:47:51.891Z,24.10
2018-05-10T14:50:19.759Z,24.20
2018-05-10T14:52:47.527Z,24.20
2018-05-10T14:55:15.494Z,24.20
2018-05-10T14:57:44.926Z,24.20
2018-05-10T15:00:12.689Z,24.20
2018-05-10T15:02:40.790Z,24.20
2018-05-10T15:05:08.558Z,24.20
2018-05-10T15:07:36.329Z,24.20
2018-05-10T15:10:04.153Z,24.20
2018-05-10T15:12:31.911Z,24.10
2018-05-10T15:14:59.685Z,24.10
2018-05-10T15:17:28.209Z,24.20
2018-05-10T15:19:55.973Z,24.20
2018-05-10T15:22:23.737Z,24.20
2018-05-10T15:24:51.527Z,24.20
2018-05-10T15:27:19.497Z,24.30
2018-05-10T15:29:47.363Z,24.30
2018-05-10T15:32:15.389Z,24.30
2018-05-10T15:34:43.302Z,24.30
2018-05-10T15:37:11.168Z,24.20
2018-05-10T15:39:39.035Z,24.10
2018-05-10T15:42:06.901Z,24.10
2018-05-10T15:44:34.705Z,24.00
2018-05-10T15:47:03.353Z,23.90
2018-05-10T15:49:31.162Z,23.90
2018-05-10T15:51:59.686Z,23.70
2018-05-10T15:54:27.570Z,23.70
2018-05-10T15:56:55.434Z,23.60
2018-05-10T15:59:23.229Z,23.50
2018-05-10T16:01:51.780Z,23.40
2018-05-10T16:04:19.649Z,23.40
2018-05-10T16:06:47.615Z,23.40
2018-05-10T16:09:15.585Z,23.30
2018-05-10T16:11:43.451Z,23.20
2018-05-10T16:14:11.318Z,23.20
2018-05-10T16:16:39.492Z,23.20
2018-05-10T16:19:07.267Z,23.20
2018-05-10T16:21:35.930Z,23.20
2018-05-10T16:24:04.525Z,23.20
2018-05-10T16:26:32.592Z,23.20
2018-05-10T16:29:01.179Z,23.20
2018-05-10T16:31:29.047Z,23.20
2018-05-10T16:33:56.914Z,23.20
2018-05-10T16:36:24.784Z,23.20
2018-05-10T16:38:52.645Z,23.20
2018-05-10T16:41:20.393Z,23.10
2018-05-10T16:43:48.153Z,23.10
2018-05-10T16:46:15.958Z,23.00
2018-05-10T16:48:43.752Z,23.10
2018-05-10T16:51:12.303Z,23.00
2018-05-10T16:53:40.082Z,22.90
2018-05-10T16:56:08.018Z,22.90
2018-05-10T16:58:35.989Z,22.80
2018-05-10T17:01:03.848Z,22.70
2018-05-10T17:03:31.721Z,22.60
2018-05-10T17:06:00.305Z,22.40
2018-05-10T17:08:28.274Z,22.40
2018-05-10T17:10:56.021Z,22.30
2018-05-10T17:13:23.794Z,22.30
2018-05-10T17:15:51.553Z,22.20
2018-05-10T17:18:19.312Z,22.10
2018-05-10T17:20:47.126Z,22.00
2018-05-10T17:23:14.895Z,22.00
2018-05-10T17:25:43.419Z,21.90
2018-05-10T17:28:11.308Z,21.90
2018-05-10T17:30:39.174Z,21.80
2018-05-10T17:33:07.042Z,21.80
2018-05-10T17:35:34.908Z,21.70
2018-05-10T17:38:02.848Z,21.60
2018-05-10T17:40:30.668Z,21.60
2018-05-10T17:42:58.610Z,21.50
2018-05-10T17:45:26.480Z,21.30
2018-05-10T17:47:54.344Z,21.20
2018-05-10T17:50:22.143Z,21.10
2018-05-10T17:52:50.793Z,20.80
2018-05-10T17:55:18.812Z,20.70
2018-05-10T17:57:48.379Z,20.60
2018-05-10T18:00:16.167Z,20.50
2018-05-10T18:02:44.699Z,20.40
2018-05-10T18:05:12.583Z,20.40
2018-05-10T18:07:40.450Z,20.40
2018-05-10T18:10:08.661Z,20.30
2018-05-10T18:12:38.128Z,20.10
2018-05-10T18:15:06.313Z,20.10
2018-05-10T18:17:34.883Z,20.00
2018-05-10T18:20:03.012Z,20.00
2018-05-10T18:22:30.785Z,20.00
2018-05-10T18:24:59.306Z,19.90
2018-05-10T18:27:27.067Z,19.90
2018-05-10T18:29:55.559Z,19.80
2018-05-10T18:32:23.417Z,19.70
2018-05-10T18:34:51.213Z,19.50
2018-05-10T18:37:19.664Z,19.50
2018-05-10T18:39:47.631Z,19.30
2018-05-10T18:42:15.530Z,19.30
2018-05-10T18:44:44.798Z,19.20
2018-05-10T18:47:12.737Z,19.20
2018-05-10T18:49:40.592Z,19.20
2018-05-10T18:52:09.042Z,19.20
2018-05-10T18:54:36.904Z,19.20
2018-05-10T18:57:04.777Z,19.20
2018-05-10T18:59:32.612Z,19.10
2018-05-10T19:02:00.479Z,19.10
2018-05-10T19:04:29.164Z,19.10
2018-05-10T19:06:56.916Z,19.00
2018-05-10T19:09:24.877Z,19.00
2018-05-10T19:11:53.892Z,18.90
2018-05-10T19:14:22.672Z,18.80
2018-05-10T19:16:51.294Z,18.80
2018-05-10T19:19:19.948Z,18.70
2018-05-10T19:21:48.429Z,18.70
2018-05-10T19:24:16.397Z,18.70
2018-05-10T19:26:45.596Z,18.70
2018-05-10T19:29:13.462Z,18.60
2018-05-10T19:31:41.952Z,18.70
2018-05-10T19:34:10.220Z,18.70
2018-05-10T19:36:38.188Z,18.60
2018-05-10T19:39:06.088Z,18.60
2018-05-10T19:41:33.953Z,18.60
2018-05-10T19:44:01.899Z,18.50
2018-05-10T19:46:29.646Z,18.50
2018-05-10T19:48:58.444Z,18.50
2018-05-10T19:51:26.670Z,18.50
2018-05-10T19:53:55.232Z,18.40
2018-05-10T19:56:23.077Z,18.40
2018-05-10T19:58:51.468Z,18.40
2018-05-10T20:01:19.813Z,18.40
2018-05-10T20:03:48.133Z,18.30
2018-05-10T20:06:15.893Z,18.20
2018-05-10T20:08:44.022Z,18.20
2018-05-10T20:11:11.881Z,18.20
2018-05-10T20:13:39.695Z,18.20
2018-05-10T20:16:07.444Z,18.10
2018-05-10T20:18:35.211Z,18.10
2018-05-10T20:21:03.013Z,18.10
2018-05-10T20:23:31.522Z,18.10
2018-05-10T20:25:59.428Z,18.10
2018-05-10T20:28:27.199Z,18.10
2018-05-10T20:30:54.960Z,18.00
2018-05-10T20:33:22.712Z,18.00
2018-05-10T20:35:50.472Z,18.00
2018-05-10T20:38:18.220Z,18.00
2018-05-10T20:40:45.970Z,18.00
2018-05-10T20:43:13.806Z,18.00
2018-05-10T20:45:41.546Z,17.90
2018-05-10T20:48:09.301Z,18.00
2018-05-10T20:50:37.060Z,17.90
2018-05-10T20:53:04.919Z,17.90
2018-05-10T20:55:32.788Z,17.90
2018-05-10T20:58:00.581Z,17.90
2018-05-10T21:00:28.337Z,17.90
2018-05-10T21:02:56.109Z,17.90
2018-05-10T21:05:23.863Z,17.90
2018-05-10T21:07:51.613Z,17.80
2018-05-10T21:10:19.381Z,17.80
2018-05-10T21:12:47.141Z,17.80
2018-05-10T21:15:14.929Z,17.80
2018-05-10T21:17:42.730Z,17.70
2018-05-10T21:20:10.492Z,17.70
2018-05-10T21:22:38.251Z,17.70
2018-05-10T21:25:06.091Z,17.70
2018-05-10T21:27:34.613Z,17.70
2018-05-10T21:30:02.385Z,17.70
2018-05-10T21:32:30.272Z,17.70
2018-05-10T21:34:58.144Z,17.70
2018-05-10T21:37:26.111Z,17.70
2018-05-10T21:39:53.903Z,17.60
2018-05-10T21:42:21.841Z,17.60
2018-05-10T21:44:49.662Z,17.60
2018-05-10T21:47:17.379Z,17.60
2018-05-10T21:49:57.319Z,17.60
2018-05-10T21:52:25.288Z,17.60
2018-05-10T21:54:53.850Z,17.60
2018-05-10T21:57:22.325Z,17.60
2018-05-10T21:59:50.081Z,17.60
2018-05-10T22:02:20.677Z,17.60
2018-05-10T22:04:48.511Z,17.60
2018-05-10T22:07:16.481Z,17.60
2018-05-10T22:09:44.352Z,17.60
2018-05-10T22:12:12.233Z,17.60
2018-05-10T22:14:40.219Z,17.70
2018-05-10T22:17:09.263Z,17.70
2018-05-10T22:19:37.145Z,17.70
2018-05-10T22:22:05.013Z,17.80
2018-05-10T22:24:32.904Z,17.70
2018-05-10T22:27:01.565Z,17.80
2018-05-10T22:29:29.359Z,17.70
2018-05-10T22:31:57.299Z,17.80
2018-05-10T22:34:25.266Z,17.80
2018-05-10T22:36:53.133Z,17.80
2018-05-10T22:39:20.897Z,17.80
2018-05-10T22:41:48.764Z,17.70
2018-05-10T22:44:16.648Z,17.70
2018-05-10T22:46:44.499Z,17.70
2018-05-10T22:49:12.363Z,17.70
2018-05-10T22:51:40.333Z,17.60
2018-05-10T22:54:08.203Z,17.60
2018-05-10T22:56:36.065Z,17.60
2018-05-10T22:59:03.933Z,17.60
2018-05-10T23:01:31.904Z,17.60
2018-05-10T23:03:59.768Z,17.70
2018-05-10T23:06:27.636Z,17.70
2018-05-10T23:08:55.501Z,17.70
2018-05-10T23:11:23.374Z,17.60
2018-05-10T23:13:51.235Z,17.70
2018-05-10T23:16:19.101Z,17.70
2018-05-10T23:18:46.968Z,17.70
2018-05-10T23:21:14.833Z,17.70
2018-05-10T23:23:42.703Z,17.70
2018-05-10T23:26:11.386Z,17.70
2018-05-10T23:28:39.253Z,17.60
2018-05-10T23:31:07.122Z,17.70
2018-05-10T23:33:34.986Z,17.70
2018-05-10T23:36:02.852Z,17.60
2018-05-10T23:38:30.720Z,17.60
2018-05-10T23:40:58.586Z,17.60
2018-05-10T23:43:26.457Z,17.60
2018-05-10T23:45:54.323Z,17.60
2018-05-10T23:48:22.185Z,17.60
2018-05-10T23:50:49.950Z,17.60
2018-05-10T23:53:17.817Z,17.70
2018-05-10T23:55:45.683Z,17.70
2018-05-10T23:58:13.550Z,17.60
